Time;durP1;ratioP1;P1;durP2;ratioP2;P2;SDS_P1;SDS_P2;PMS_P1;PMS_P2;Temp;Humidity;BMP_temperature;BMP_pressure;BME280_temperature;BME280_humidity;BME280_pressure;Samples;Min_cycle;Max_cycle;Signal;HPM_P1;HPM_P2
2023/03/11 00:00:35;;;;;;;4.45;2.10;;;1.00;99.90;;;;;;6203642;23;20025;-89
2023/03/11 00:03:23;;;;;;;3.15;1.92;;;1.00;99.90;;;;;;6196338;23;20029;-89
2023/03/11 00:06:10;;;;;;;1.98;1.50;;;0.90;99.90;;;;;;6197869;23;20029;-89
2023/03/11 00:08:59;;;;;;;1.77;1.67;;;0.80;99.90;;;;;;6197804;23;20420;-88
2023/03/11 00:11:46;;;;;;;2.58;1.77;;;0.80;99.90;;;;;;6198089;23;20028;-89
2023/03/11 00:14:33;;;;;;;2.67;2.30;;;0.70;99.90;;;;;;6218467;23;20075;-92
2023/03/11 00:17:21;;;;;;;1.90;1.63;;;0.80;99.90;;;;;;6221101;23;20020;-88
2023/03/11 00:20:23;;;;;;;2.17;1.70;;;0.70;99.90;;;;;;6222392;22;20117;-90
2023/03/11 00:23:14;;;;;;;2.95;1.70;;;0.80;99.90;;;;;;6218447;23;20032;-90
2023/03/11 00:26:02;;;;;;;2.60;1.52;;;0.70;99.90;;;;;;6197967;23;20024;-90
2023/03/11 00:28:49;;;;;;;2.13;1.60;;;0.70;99.90;;;;;;6199429;23;20420;-89
2023/03/11 00:31:37;;;;;;;2.72;2.25;;;0.70;99.90;;;;;;6219672;23;20024;-90
2023/03/11 00:34:26;;;;;;;2.30;1.92;;;0.80;1.00;;;;;;6218526;23;20408;-91
2023/03/11 00:37:19;;;;;;;4.40;1.60;;;0.90;1.00;;;;;;6198018;23;20347;-88
2023/03/11 00:40:10;;;;;;;1.83;1.73;;;0.90;1.00;;;;;;6215387;23;20097;-88
2023/03/11 00:43:00;;;;;;;4.95;2.15;;;0.90;1.00;;;;;;6217334;23;20028;-86
2023/03/11 00:45:48;;;;;;;2.35;1.73;;;1.00;1.00;;;;;;6218048;23;20444;-87
2023/03/11 00:48:37;;;;;;;4.00;1.90;;;1.00;1.00;;;;;;6212857;23;20048;-89
2023/03/11 00:51:24;;;;;;;1.80;1.70;;;1.10;1.00;;;;;;6248010;23;20024;-89
2023/03/11 00:54:12;;;;;;;2.97;1.80;;;1.20;1.00;;;;;;6225889;23;20447;-87
2023/03/11 00:57:01;;;;;;;3.33;2.17;;;1.20;99.90;;;;;;6246645;23;20024;-88
2023/03/11 00:59:48;;;;;;;5.13;2.50;;;1.20;1.00;;;;;;6246476;23;20051;-86
2023/03/11 01:02:38;;;;;;;2.63;1.92;;;1.20;99.90;;;;;;6249573;23;20292;-88
2023/03/11 01:05:29;;;;;;;4.88;2.20;;;1.30;99.90;;;;;;6249090;23;20039;-89
2023/03/11 01:08:16;;;;;;;3.85;1.88;;;1.30;99.90;;;;;;6249781;23;20106;-89
2023/03/11 01:11:05;;;;;;;3.28;2.22;;;1.30;99.90;;;;;;6263895;23;20031;-89
2023/03/11 01:13:52;;;;;;;2.75;2.17;;;1.30;99.90;;;;;;6263315;23;20020;-89
2023/03/11 01:16:40;;;;;;;3.15;2.40;;;1.30;99.90;;;;;;6262631;23;20024;-93
2023/03/11 01:19:28;;;;;;;4.80;1.98;;;1.30;1.00;;;;;;6263211;23;20098;-89
2023/03/11 01:22:17;;;;;;;2.38;2.15;;;1.30;1.00;;;;;;6263314;23;20051;-89
2023/03/11 01:25:05;;;;;;;4.30;2.65;;;1.30;1.00;;;;;;6263260;23;20063;-87
2023/03/11 01:27:52;;;;;;;4.15;2.55;;;1.30;1.00;;;;;;6262766;23;20028;-89
2023/03/11 01:30:43;;;;;;;2.95;2.30;;;1.30;1.00;;;;;;6241899;23;20040;-88
2023/03/11 01:37:19;;;;;;;6.07;2.58;;;1.20;1.00;;;;;;6267901;22;20023;-89
2023/03/11 01:40:08;;;;;;;2.60;2.13;;;1.20;1.00;;;;;;6265049;22;20043;-89
2023/03/11 01:42:56;;;;;;;5.93;2.58;;;1.20;1.00;;;;;;6269682;22;20012;-89
2023/03/11 01:45:49;;;;;;;3.17;2.33;;;1.20;1.00;;;;;;6270704;22;20011;-88
2023/03/11 01:48:39;;;;;;;6.03;2.58;;;1.20;1.00;;;;;;6255977;22;20016;-90
2023/03/11 01:51:34;;;;;;;5.85;2.90;;;1.10;1.00;;;;;;6241570;22;20028;-87
2023/03/11 01:54:22;;;;;;;3.38;2.50;;;1.10;1.00;;;;;;6218683;23;20090;-88
2023/03/11 01:57:12;;;;;;;2.85;2.33;;;1.00;1.00;;;;;;6241622;23;20012;-89
2023/03/11 02:00:04;;;;;;;3.97;2.35;;;1.00;1.00;;;;;;6219903;23;20025;-88
2023/03/11 02:02:53;;;;;;;3.20;2.25;;;1.00;1.00;;;;;;6239852;23;20012;-86
2023/03/11 02:05:43;;;;;;;2.47;2.13;;;1.00;1.00;;;;;;6239593;23;20029;-89
2023/03/11 02:08:33;;;;;;;4.20;2.35;;;0.90;1.00;;;;;;6240280;23;20047;-89
2023/03/11 02:11:28;;;;;;;4.47;2.22;;;0.90;1.00;;;;;;6242266;23;20028;-87
2023/03/11 02:14:16;;;;;;;2.40;2.17;;;0.80;1.00;;;;;;6240369;23;20040;-87
2023/03/11 02:17:03;;;;;;;2.78;2.20;;;0.80;1.00;;;;;;6237969;23;20047;-87
2023/03/11 02:20:05;;;;;;;2.60;2.03;;;0.80;1.00;;;;;;6238768;22;20061;-88
2023/03/11 02:23:00;;;;;;;4.97;2.47;;;0.70;1.00;;;;;;6229968;23;20025;-88
2023/03/11 02:25:49;;;;;;;6.45;2.30;;;0.70;99.90;;;;;;6206680;23;20340;-87
2023/03/11 02:28:41;;;;;;;4.00;2.00;;;0.70;99.90;;;;;;6225296;23;20024;-88
2023/03/11 02:31:29;;;;;;;1.98;1.80;;;0.60;99.90;;;;;;6225513;23;20025;-88
2023/03/11 02:34:29;;;;;;;4.57;2.15;;;0.60;99.90;;;;;;6226453;23;20039;-89
2023/03/11 02:37:21;;;;;;;5.70;2.55;;;0.50;99.90;;;;;;6225176;23;20020;-88
2023/03/11 02:40:23;;;;;;;4.20;1.80;;;0.40;99.90;;;;;;6226349;23;20028;-87
2023/03/11 02:43:19;;;;;;;3.50;2.28;;;0.30;99.90;;;;;;6225940;23;20079;-87
2023/03/11 02:46:10;;;;;;;8.77;2.08;;;0.20;99.90;;;;;;6222223;23;20020;-87
2023/03/11 02:48:59;;;;;;;3.50;2.00;;;0.10;99.90;;;;;;6218672;23;20035;-87
2023/03/11 02:51:48;;;;;;;3.65;2.00;;;0.00;99.90;;;;;;6198476;23;20398;-87
2023/03/11 02:54:35;;;;;;;4.40;2.00;;;-0.10;99.90;;;;;;6216968;23;20036;-88
2023/03/11 02:57:22;;;;;;;5.57;2.10;;;-0.20;99.90;;;;;;6176763;23;20316;-88
2023/03/11 03:00:14;;;;;;;4.15;1.90;;;-0.30;99.90;;;;;;6196431;23;20024;-89
2023/03/11 03:03:01;;;;;;;5.85;2.03;;;-0.40;99.90;;;;;;6218686;23;20020;-89
2023/03/11 03:05:51;;;;;;;4.35;1.92;;;-0.40;99.90;;;;;;6218142;23;20460;-89
2023/03/11 03:08:39;;;;;;;3.85;2.20;;;-0.50;99.90;;;;;;6217926;23;20032;-88
2023/03/11 03:11:26;;;;;;;7.20;1.73;;;-0.60;1.00;;;;;;6198597;23;20024;-89
2023/03/11 03:14:15;;;;;;;4.28;2.15;;;-0.70;1.00;;;;;;6217685;23;20116;-88
2023/03/11 03:17:02;;;;;;;6.85;1.90;;;-0.80;1.00;;;;;;6217196;23;20178;-89
2023/03/11 03:19:53;;;;;;;8.27;1.60;;;-0.80;1.00;;;;;;6217374;23;20038;-87
2023/03/11 03:22:45;;;;;;;6.60;1.70;;;-0.80;1.00;;;;;;6219095;23;20024;-87
2023/03/11 03:25:33;;;;;;;5.13;1.57;;;-0.80;99.90;;;;;;6197426;23;20025;-88
2023/03/11 03:28:20;;;;;;;9.43;2.65;;;-0.80;99.90;;;;;;6222439;23;20682;-89
2023/03/11 03:31:09;;;;;;;2.78;2.17;;;-0.90;99.90;;;;;;6204689;23;20044;-88
2023/03/11 03:33:58;;;;;;;5.47;1.88;;;-1.00;99.90;;;;;;6222460;23;20020;-87
2023/03/11 03:36:46;;;;;;;7.97;1.90;;;-1.10;99.90;;;;;;6217103;23;20088;-88
2023/03/11 03:39:33;;;;;;;5.70;2.13;;;-1.20;99.90;;;;;;6174602;23;20336;-89
2023/03/11 03:42:21;;;;;;;7.82;1.92;;;-1.20;99.90;;;;;;6218922;22;20024;-87
2023/03/11 03:45:09;;;;;;;5.70;1.98;;;-1.20;99.90;;;;;;6218227;23;20078;-87
2023/03/11 03:47:56;;;;;;;2.60;1.80;;;-1.30;99.90;;;;;;6217025;23;20063;-88
2023/03/11 03:50:46;;;;;;;3.70;1.88;;;-1.50;99.90;;;;;;6217375;23;20047;-88
2023/03/11 03:53:36;;;;;;;2.70;1.92;;;-1.60;99.90;;;;;;6219189;23;20118;-87
2023/03/11 03:56:24;;;;;;;7.20;2.20;;;-1.70;1.00;;;;;;6218830;23;20016;-88
2023/03/11 03:59:12;;;;;;;3.83;1.77;;;-1.80;1.00;;;;;;6217006;23;20028;-89
2023/03/11 04:02:01;;;;;;;6.03;2.30;;;-1.90;1.00;;;;;;6224866;22;20021;-87
2023/03/11 04:04:49;;;;;;;4.70;1.90;;;-1.90;1.00;;;;;;6218740;23;20035;-86
2023/03/11 04:07:37;;;;;;;5.88;1.85;;;-2.00;1.00;;;;;;6197764;23;20079;-88
2023/03/11 04:10:24;;;;;;;4.82;2.10;;;-2.00;1.00;;;;;;6220973;22;20032;-88
2023/03/11 04:13:14;;;;;;;7.53;2.25;;;-2.00;1.00;;;;;;6217538;23;20032;-88
2023/03/11 04:16:13;;;;;;;6.18;2.22;;;-2.00;1.00;;;;;;6223613;23;20312;-87
2023/03/11 04:19:00;;;;;;;3.53;2.40;;;-2.00;1.00;;;;;;6226038;23;20078;-89
2023/03/11 04:21:50;;;;;;;6.25;2.10;;;-2.10;1.00;;;;;;6206623;23;20020;-88
2023/03/11 04:24:38;;;;;;;5.10;1.98;;;-2.10;1.00;;;;;;6227599;23;20094;-86
2023/03/11 04:27:25;;;;;;;3.33;2.45;;;-2.00;1.00;;;;;;6206528;23;20047;-87
2023/03/11 04:30:13;;;;;;;6.88;2.42;;;-2.10;1.00;;;;;;6229584;23;20066;-86
2023/03/11 04:33:00;;;;;;;11.52;2.70;;;-2.10;1.00;;;;;;6225077;23;20459;-86
2023/03/11 04:35:47;;;;;;;7.25;2.25;;;-2.10;1.00;;;;;;6228664;23;20029;-87
2023/03/11 04:38:36;;;;;;;2.65;2.33;;;-2.20;1.00;;;;;;6217019;23;20025;-88
2023/03/11 04:41:23;;;;;;;7.00;2.42;;;-2.30;1.00;;;;;;6220796;23;20024;-87
2023/03/11 04:44:11;;;;;;;6.72;2.58;;;-2.40;11.10;;;;;;6202634;23;20108;-87
2023/03/11 04:46:58;;;;;;;6.43;2.70;;;-2.40;38.50;;;;;;6198446;23;20032;-87
2023/03/11 04:49:45;;;;;;;3.63;2.42;;;-2.40;66.60;;;;;;6219229;23;20436;-87
2023/03/11 04:52:32;;;;;;;7.30;2.50;;;-2.40;93.30;;;;;;6217265;23;20278;-87
2023/03/11 04:55:20;;;;;;;2.90;2.53;;;-2.30;99.90;;;;;;6218865;23;20118;-87
2023/03/11 04:58:09;;;;;;;4.32;3.03;;;-2.30;99.90;;;;;;6221115;22;20021;-87
2023/03/11 05:01:47;;;;;;;6.88;3.13;;;-2.30;99.90;;;;;;6215913;23;20032;-87
2023/03/11 05:05:23;;;;;;;6.72;3.47;;;-2.50;99.90;;;;;;6218715;23;20404;-85
2023/03/11 05:08:24;;;;;;;4.75;2.60;;;-2.60;99.90;;;;;;6180274;23;20028;-86
2023/03/11 05:11:11;;;;;;;5.65;3.00;;;-2.60;99.90;;;;;;6217986;23;20039;-86
2023/03/11 05:14:15;;;;;;;11.82;3.13;;;-2.60;99.90;;;;;;6199316;23;20047;-87
2023/03/11 05:17:03;;;;;;;12.25;3.30;;;-2.60;99.90;;;;;;6219036;23;20447;-87
2023/03/11 05:19:52;;;;;;;6.78;3.10;;;-2.60;99.90;;;;;;6218779;23;20440;-89
2023/03/11 05:22:39;;;;;;;4.68;2.92;;;-2.60;99.90;;;;;;6217482;23;20025;-88
2023/03/11 05:25:27;;;;;;;5.95;2.78;;;-2.70;99.90;;;;;;6199049;23;20028;-88
2023/03/11 05:28:14;;;;;;;5.68;2.83;;;-2.80;99.90;;;;;;6217763;23;20025;-87
2023/03/11 05:31:02;;;;;;;7.97;2.90;;;-2.80;99.90;;;;;;6197715;23;20024;-88
2023/03/11 05:33:51;;;;;;;6.35;2.88;;;-2.80;99.90;;;;;;6218500;23;20021;-87
2023/03/11 05:36:38;;;;;;;6.20;3.08;;;-2.70;99.90;;;;;;6197655;23;20024;-87
2023/03/11 05:39:26;;;;;;;6.60;3.08;;;-2.50;99.90;;;;;;6217657;23;20345;-87
2023/03/11 05:42:16;;;;;;;3.67;2.90;;;-2.40;99.90;;;;;;6195731;23;20029;-88
2023/03/11 05:45:03;;;;;;;6.18;3.10;;;-2.30;99.90;;;;;;6218128;23;20024;-87
2023/03/11 05:47:51;;;;;;;11.32;2.75;;;-2.30;99.90;;;;;;6217082;23;20056;-87
2023/03/11 05:50:38;;;;;;;4.07;2.15;;;-2.30;99.90;;;;;;6219804;23;20083;-87
2023/03/11 05:53:26;;;;;;;6.20;2.55;;;-2.30;99.90;;;;;;6219994;23;20032;-88
2023/03/11 05:56:21;;;;;;;4.13;2.38;;;-2.40;99.90;;;;;;6199259;23;20115;-87
2023/03/11 05:59:15;;;;;;;6.15;2.38;;;-2.40;99.90;;;;;;6223086;23;20020;-88
2023/03/11 06:02:02;;;;;;;11.48;4.93;;;-2.50;99.90;;;;;;6222450;23;20025;-88
2023/03/11 06:04:50;;;;;;;5.22;2.53;;;-2.50;99.90;;;;;;6216933;23;20024;-87
2023/03/11 06:07:37;;;;;;;2.88;2.10;;;-2.50;99.90;;;;;;6218646;23;20024;-89
2023/03/11 06:10:27;;;;;;;5.30;2.47;;;-2.50;99.90;;;;;;6195330;23;20035;-89
2023/03/11 06:13:15;;;;;;;5.90;2.65;;;-2.50;99.90;;;;;;6218524;23;20032;-90
2023/03/11 06:16:03;;;;;;;6.63;2.72;;;-2.50;99.90;;;;;;6218396;23;20048;-89
2023/03/11 06:18:51;;;;;;;6.93;2.70;;;-2.40;99.90;;;;;;6218255;23;20028;-89
2023/03/11 06:21:38;;;;;;;9.35;3.30;;;-2.30;99.90;;;;;;6200120;23;20021;-88
2023/03/11 06:24:25;;;;;;;12.00;2.60;;;-2.30;99.90;;;;;;6225201;23;20029;-88
2023/03/11 06:27:13;;;;;;;7.63;2.58;;;-2.30;99.90;;;;;;6178121;23;20028;-89
2023/03/11 06:30:03;;;;;;;7.75;2.85;;;-2.30;99.90;;;;;;6218790;23;20107;-87
2023/03/11 06:32:50;;;;;;;5.88;2.40;;;-2.30;99.90;;;;;;6195400;23;20456;-89
2023/03/11 06:35:41;;;;;;;3.95;2.13;;;-2.20;99.90;;;;;;6220621;23;20076;-87
2023/03/11 06:38:29;;;;;;;5.93;3.40;;;-2.00;99.90;;;;;;6200545;23;20016;-87
2023/03/11 06:41:22;;;;;;;10.40;3.20;;;-1.90;99.90;;;;;;6217252;23;20024;-88
2023/03/11 06:44:10;;;;;;;14.65;3.47;;;-1.80;99.90;;;;;;6218828;23;20158;-88
2023/03/11 06:46:57;;;;;;;13.35;2.60;;;-1.60;99.90;;;;;;6196481;23;20396;-88
2023/03/11 06:49:45;;;;;;;4.15;2.40;;;-1.20;99.90;;;;;;6218601;23;20020;-88
2023/03/11 06:52:32;;;;;;;8.65;2.30;;;-0.60;99.90;;;;;;6200037;23;20411;-90
2023/03/11 06:55:20;;;;;;;10.05;2.60;;;0.00;99.90;;;;;;6194945;23;20470;-87
2023/03/11 06:58:07;;;;;;;6.70;2.30;;;0.40;99.90;;;;;;6195248;23;20348;-87
2023/03/11 07:00:58;;;;;;;6.47;2.30;;;0.80;17.20;;;;;;6218104;23;20087;-87
2023/03/11 07:03:49;;;;;;;6.85;2.15;;;1.10;1.00;;;;;;6217607;23;20056;-89
2023/03/11 07:06:39;;;;;;;9.35;2.03;;;1.30;1.00;;;;;;6196016;23;20478;-87
2023/03/11 07:09:27;;;;;;;9.43;2.50;;;1.40;1.00;;;;;;6216811;23;20103;-89
2023/03/11 07:12:14;;;;;;;4.00;2.05;;;1.50;99.90;;;;;;6218120;23;20029;-88
2023/03/11 07:15:04;;;;;;;7.38;2.10;;;1.70;99.90;;;;;;6214506;23;20331;-87
2023/03/11 07:17:51;;;;;;;5.78;1.90;;;1.90;99.90;;;;;;6214786;23;20360;-88
2023/03/11 07:20:38;;;;;;;7.05;2.72;;;2.00;99.90;;;;;;6216788;23;20028;-88
2023/03/11 07:23:30;;;;;;;7.88;2.08;;;1.90;99.90;;;;;;6217672;23;20046;-88
2023/03/11 07:26:29;;;;;;;10.05;2.53;;;1.80;99.90;;;;;;6195981;23;20028;-85
2023/03/11 07:29:33;;;;;;;5.15;2.25;;;1.80;99.90;;;;;;6216252;23;20086;-88
2023/03/11 07:32:22;;;;;;;8.73;2.00;;;1.70;99.90;;;;;;6215416;23;20092;-88
2023/03/11 07:35:14;;;;;;;7.13;2.33;;;1.90;99.90;;;;;;6215904;23;20025;-88
2023/03/11 07:38:01;;;;;;;4.47;1.80;;;2.30;99.90;;;;;;6196031;23;20111;-87
2023/03/11 07:41:01;;;;;;;6.03;1.88;;;2.60;99.90;;;;;;6215425;23;20025;-88
2023/03/11 07:43:48;;;;;;;10.15;2.45;;;2.70;99.90;;;;;;6192686;23;20025;-87
2023/03/11 07:46:35;;;;;;;7.70;2.20;;;2.60;99.90;;;;;;6215351;23;20040;-86
2023/03/11 07:49:26;;;;;;;5.70;1.75;;;2.80;99.90;;;;;;6216383;23;20035;-84
2023/03/11 07:52:14;;;;;;;8.23;1.92;;;2.90;99.90;;;;;;6214163;23;20052;-84
2023/03/11 07:55:01;;;;;;;9.07;2.22;;;3.10;99.90;;;;;;6219137;23;20071;-84
2023/03/11 07:57:50;;;;;;;7.18;2.28;;;3.50;99.90;;;;;;6218714;22;20107;-84
2023/03/11 08:00:38;;;;;;;19.40;2.50;;;3.80;99.90;;;;;;6219164;23;20340;-85
2023/03/11 08:03:25;;;;;;;9.02;2.15;;;4.30;99.90;;;;;;6219307;23;20021;-87
2023/03/11 08:06:17;;;;;;;4.78;2.00;;;4.50;99.90;;;;;;6214181;22;20012;-86
2023/03/11 08:09:07;;;;;;;8.73;1.88;;;4.80;99.90;;;;;;6231081;23;20103;-86
2023/03/11 08:11:55;;;;;;;7.22;2.05;;;5.00;99.90;;;;;;6197954;23;20024;-85
2023/03/11 08:14:42;;;;;;;6.00;1.80;;;4.60;99.90;;;;;;6220559;23;20017;-81
2023/03/11 08:17:29;;;;;;;9.55;2.60;;;4.80;99.90;;;;;;6228439;23;20028;-83
2023/03/11 08:20:17;;;;;;;4.15;1.60;;;5.10;99.90;;;;;;6234167;22;20071;-85
2023/03/11 08:23:05;;;;;;;7.30;1.80;;;5.90;99.90;;;;;;6228685;23;20024;-85
2023/03/11 08:25:52;;;;;;;3.10;1.52;;;6.10;99.90;;;;;;6228585;23;20036;-83
2023/03/11 08:28:39;;;;;;;6.20;2.10;;;6.20;99.90;;;;;;6197807;23;20039;-84
2023/03/11 08:31:30;;;;;;;5.75;1.50;;;6.40;99.90;;;;;;6217257;23;20046;-85
2023/03/11 08:34:23;;;;;;;3.95;1.27;;;6.90;99.90;;;;;;6194330;23;20048;-85
2023/03/11 08:37:10;;;;;;;5.43;1.40;;;7.90;99.90;;;;;;6194086;23;20033;-84
2023/03/11 08:39:58;;;;;;;4.40;1.38;;;8.70;99.90;;;;;;6217903;23;20025;-82
2023/03/11 08:42:46;;;;;;;6.03;1.48;;;8.40;99.90;;;;;;6215793;23;20324;-84
2023/03/11 08:45:38;;;;;;;8.57;1.55;;;8.00;97.20;;;;;;6214789;23;20131;-84
2023/03/11 08:48:25;;;;;;;5.10;1.33;;;8.00;93.50;;;;;;6218267;23;20032;-85
2023/03/11 08:51:13;;;;;;;3.45;1.30;;;8.40;90.30;;;;;;6213916;23;20139;-85
2023/03/11 08:54:01;;;;;;;5.25;1.42;;;9.00;91.40;;;;;;6220118;22;20025;-84
2023/03/11 08:56:49;;;;;;;3.90;1.27;;;9.20;89.30;;;;;;6195085;23;20031;-88
2023/03/11 08:59:37;;;;;;;5.63;1.65;;;9.50;81.40;;;;;;6217414;23;20225;-83
2023/03/11 09:02:25;;;;;;;6.40;1.25;;;9.30;74.20;;;;;;6218272;23;20021;-86
2023/03/11 09:05:12;;;;;;;2.55;1.10;;;9.50;67.00;;;;;;6218150;23;20040;-85
2023/03/11 09:08:03;;;;;;;7.28;1.40;;;9.00;53.10;;;;;;6196625;23;20024;-86
2023/03/11 09:10:51;;;;;;;7.05;1.90;;;8.00;48.50;;;;;;6199390;23;20029;-86
2023/03/11 09:13:40;;;;;;;6.68;1.33;;;7.50;49.10;;;;;;6219629;23;20086;-86
2023/03/11 09:16:32;;;;;;;6.72;1.48;;;8.20;44.20;;;;;;6216324;23;20610;-83
2023/03/11 09:19:19;;;;;;;3.83;0.90;;;7.80;42.90;;;;;;6220524;23;20020;-86
2023/03/11 09:22:07;;;;;;;3.28;1.27;;;6.70;38.30;;;;;;6218405;23;20423;-86
2023/03/11 09:24:55;;;;;;;3.85;1.23;;;6.60;44.00;;;;;;6220805;23;20033;-85
2023/03/11 09:27:45;;;;;;;4.88;1.88;;;7.70;47.80;;;;;;6200510;23;20036;-88
2023/03/11 09:30:34;;;;;;;2.88;1.00;;;8.30;45.20;;;;;;6221626;23;20024;-83
2023/03/11 09:33:22;;;;;;;2.42;1.20;;;8.20;40.70;;;;;;6220690;23;20040;-86
2023/03/11 09:36:20;;;;;;;2.35;0.90;;;7.60;33.10;;;;;;6218943;23;20024;-84
2023/03/11 09:39:07;;;;;;;2.65;1.10;;;7.80;29.50;;;;;;6219049;23;20120;-84
2023/03/11 09:41:57;;;;;;;3.60;1.33;;;9.10;34.60;;;;;;6219099;23;20052;-86
2023/03/11 09:45:03;;;;;;;2.92;1.00;;;9.80;27.20;;;;;;6223906;23;20047;-85
2023/03/11 09:48:22;;;;;;;3.45;1.20;;;10.30;29.00;;;;;;6203361;23;20036;-83
2023/03/11 09:51:21;;;;;;;4.40;0.82;;;11.30;21.20;;;;;;6220523;23;20420;-83
2023/03/11 09:54:10;;;;;;;2.13;0.65;;;12.80;19.60;;;;;;6224425;23;20032;-83
2023/03/11 09:56:59;;;;;;;4.28;1.00;;;12.50;12.90;;;;;;6218211;23;20123;-86
2023/03/11 09:59:49;;;;;;;3.17;0.98;;;12.40;3.80;;;;;;6181389;23;20112;-88
2023/03/11 10:02:38;;;;;;;1.75;0.80;;;11.10;1.50;;;;;;6201935;23;20024;-88
2023/03/11 10:05:28;;;;;;;2.50;0.90;;;12.10;1.00;;;;;;6220921;23;20032;-85
2023/03/11 10:08:39;;;;;;;4.97;1.33;;;12.30;1.00;;;;;;6219316;23;20328;-88
2023/03/11 10:11:44;;;;;;;2.75;1.00;;;11.10;1.00;;;;;;6217671;23;20507;-86
2023/03/11 10:14:41;;;;;;;2.78;1.02;;;12.00;1.00;;;;;;6220668;23;20103;-85
2023/03/11 10:17:40;;;;;;;3.20;0.95;;;13.60;1.00;;;;;;6220344;23;20024;-84
2023/03/11 10:20:49;;;;;;;4.68;0.90;;;14.10;1.00;;;;;;6221986;23;20024;-86
2023/03/11 10:24:02;;;;;;;3.45;1.13;;;13.30;1.00;;;;;;6225076;23;20025;-84
2023/03/11 10:26:55;;;;;;;6.03;1.10;;;13.00;1.00;;;;;;6227089;23;20028;-85
2023/03/11 10:30:24;;;;;;;2.85;0.80;;;13.80;1.00;;;;;;6233616;23;20079;-84
2023/03/11 10:33:55;;;;;;;3.17;0.73;;;14.20;1.00;;;;;;6114266;23;20030;-85
2023/03/11 10:37:02;;;;;;;2.10;0.90;;;13.40;1.00;;;;;;6215584;23;20025;-87
2023/03/11 10:39:53;;;;;;;2.03;0.80;;;12.90;1.00;;;;;;6229450;23;20047;-88
2023/03/11 10:42:43;;;;;;;4.68;1.33;;;14.00;1.00;;;;;;6229078;23;20046;-88
2023/03/11 10:45:40;;;;;;;4.45;1.13;;;13.80;1.00;;;;;;6223027;23;20045;-87
2023/03/11 10:48:29;;;;;;;2.80;1.15;;;13.50;1.00;;;;;;6225968;22;20038;-88
2023/03/11 10:51:22;;;;;;;3.08;0.90;;;12.50;1.00;;;;;;6222901;23;20056;-86
2023/03/11 10:54:45;;;;;;;2.70;1.15;;;10.40;1.00;;;;;;6220225;23;20422;-85
2023/03/11 10:57:35;;;;;;;2.93;1.00;;;11.00;1.00;;;;;;6220497;23;20024;-85
2023/03/11 11:00:29;;;;;;;3.10;1.38;;;11.70;1.00;;;;;;6224153;23;20301;-85
2023/03/11 11:03:22;;;;;;;1.80;1.15;;;11.30;1.00;;;;;;6219819;23;20313;-85
2023/03/11 11:06:21;;;;;;;;;;;10.80;1.00;;;;;;6221664;23;20348;-85
2023/03/11 11:09:15;;;;;;;4.93;0.90;;;11.50;1.00;;;;;;6217825;23;19916;-84
2023/03/11 11:12:16;;;;;;;6.95;1.38;;;12.30;1.00;;;;;;6220113;23;20024;-85
2023/03/11 11:15:04;;;;;;;5.55;1.08;;;12.70;1.00;;;;;;6226558;23;20028;-86
2023/03/11 11:17:54;;;;;;;1.42;0.98;;;10.60;1.00;;;;;;6221034;23;20037;-85
2023/03/11 11:20:55;;;;;;;4.78;1.23;;;9.70;1.00;;;;;;6228475;23;20070;-87
2023/03/11 11:24:01;;;;;;;2.30;1.05;;;11.00;1.00;;;;;;6223920;23;20021;-85
2023/03/11 11:27:23;;;;;;;1.30;0.88;;;12.80;1.00;;;;;;6226948;23;20029;-84
2023/03/11 11:30:16;;;;;;;2.42;1.20;;;13.20;1.00;;;;;;6218578;23;20035;-88
2023/03/11 11:33:24;;;;;;;2.80;1.10;;;13.50;1.00;;;;;;6198594;23;20115;-85
2023/03/11 11:36:15;;;;;;;5.25;1.58;;;13.10;1.00;;;;;;6217929;23;20029;-86
2023/03/11 11:39:15;;;;;;;2.97;0.82;;;13.50;1.00;;;;;;6198812;23;20024;-86
2023/03/11 11:42:03;;;;;;;3.85;1.25;;;15.00;1.00;;;;;;6223437;23;20035;-86
2023/03/11 11:45:19;;;;;;;2.58;1.15;;;16.30;1.00;;;;;;6231321;23;20017;-85
2023/03/11 11:48:32;;;;;;;2.55;1.00;;;15.70;1.00;;;;;;6232590;23;20044;-87
2023/03/11 11:51:27;;;;;;;4.13;1.35;;;12.40;1.00;;;;;;6221029;23;20028;-86
2023/03/11 11:54:32;;;;;;;1.90;0.90;;;11.80;1.00;;;;;;6222435;23;20040;-85
2023/03/11 11:57:23;;;;;;;2.60;1.00;;;11.70;1.00;;;;;;6217090;23;20436;-83
2023/03/11 12:00:41;;;;;;;3.88;1.10;;;12.50;1.00;;;;;;6218928;23;20024;-86
2023/03/11 12:03:48;;;;;;;2.65;0.80;;;13.80;1.00;;;;;;6220103;23;20028;-85
2023/03/11 12:07:01;;;;;;;3.13;0.90;;;14.30;1.00;;;;;;6221425;22;20040;-86
2023/03/11 12:10:15;;;;;;;4.75;0.80;;;14.80;1.00;;;;;;6216429;23;20036;-83
2023/03/11 12:13:33;;;;;;;2.45;0.95;;;15.90;1.00;;;;;;6219570;23;20056;-84
2023/03/11 12:16:46;;;;;;;2.13;0.90;;;16.10;1.00;;;;;;6220130;23;20087;-86
2023/03/11 12:19:38;;;;;;;2.65;1.05;;;14.50;1.00;;;;;;6217492;23;20021;-88
2023/03/11 12:22:25;;;;;;;1.20;0.85;;;14.50;1.00;;;;;;6218248;23;20114;-84
2023/03/11 12:25:45;;;;;;;4.50;1.10;;;13.50;1.00;;;;;;6217499;23;20021;-87
2023/03/11 12:28:44;;;;;;;3.63;1.17;;;14.00;1.00;;;;;;6219341;23;20025;-86
2023/03/11 12:31:37;;;;;;;3.30;1.00;;;14.90;1.00;;;;;;6219358;23;20024;-85
2023/03/11 12:34:28;;;;;;;4.10;1.40;;;13.20;1.00;;;;;;6219466;23;20082;-84
2023/03/11 12:37:23;;;;;;;3.38;1.23;;;12.50;1.00;;;;;;6217644;23;20079;-84
2023/03/11 12:40:41;;;;;;;5.60;1.60;;;12.30;1.00;;;;;;6219640;23;20041;-86
2023/03/11 12:43:32;;;;;;;3.17;1.40;;;13.50;1.00;;;;;;6218358;23;20024;-85
2023/03/11 12:46:20;;;;;;;2.63;1.23;;;13.70;1.00;;;;;;6219057;23;20043;-82
2023/03/11 12:49:17;;;;;;;2.83;0.95;;;13.00;1.00;;;;;;6229961;23;20039;-86
2023/03/11 12:52:13;;;;;;;4.13;1.50;;;14.00;1.00;;;;;;6218970;23;20124;-86
2023/03/11 12:55:00;;;;;;;1.70;0.93;;;14.50;1.00;;;;;;6198957;23;20035;-86
2023/03/11 12:57:47;;;;;;;2.22;1.10;;;15.20;1.00;;;;;;6217770;23;20036;-88
2023/03/11 13:01:18;;;;;;;4.32;1.13;;;16.20;1.00;;;;;;6222428;23;20076;-86
2023/03/11 13:04:20;;;;;;;1.90;1.00;;;16.60;1.00;;;;;;6099770;23;20040;-86
2023/03/11 13:07:34;;;;;;;3.03;1.20;;;16.90;1.00;;;;;;6221236;22;20036;-87
2023/03/11 13:10:27;;;;;;;3.72;1.33;;;15.60;1.00;;;;;;6220191;23;20032;-87
2023/03/11 13:13:23;;;;;;;4.10;1.20;;;15.30;1.00;;;;;;6223185;22;20033;-86
2023/03/11 13:16:16;;;;;;;3.42;0.98;;;16.20;1.00;;;;;;6218563;23;20032;-84
2023/03/11 13:19:26;;;;;;;2.88;0.90;;;17.20;1.00;;;;;;6219799;23;20031;-85
2023/03/11 13:23:02;;;;;;;5.70;1.50;;;17.40;1.00;;;;;;6218252;23;20020;-86
2023/03/11 13:25:52;;;;;;;2.78;0.90;;;17.30;1.00;;;;;;6147079;23;20033;-86
2023/03/11 13:29:12;;;;;;;3.35;1.50;;;17.90;1.00;;;;;;6219685;23;20043;-86
2023/03/11 13:32:31;;;;;;;3.97;1.30;;;16.40;1.00;;;;;;6219633;23;20025;-86
2023/03/11 13:35:54;;;;;;;4.80;1.13;;;15.70;1.00;;;;;;6219171;23;20036;-87
2023/03/11 13:39:18;;;;;;;4.47;1.20;;;16.70;1.00;;;;;;6222494;23;20081;-85
2023/03/11 13:42:28;;;;;;;4.55;1.20;;;16.90;1.00;;;;;;6200194;23;20064;-84
2023/03/11 13:45:34;;;;;;;1.92;1.20;;;15.80;1.00;;;;;;6218320;23;20091;-84
2023/03/11 13:48:48;;;;;;;5.30;1.45;;;14.80;1.00;;;;;;6212865;23;20039;-84
2023/03/11 13:51:42;;;;;;;3.90;1.30;;;12.50;1.00;;;;;;6250675;23;20028;-87
2023/03/11 13:54:49;;;;;;;2.20;1.20;;;14.00;1.00;;;;;;6249287;23;20047;-86
2023/03/11 13:57:37;;;;;;;2.47;1.17;;;15.70;1.00;;;;;;6230354;23;20028;-87
2023/03/11 14:00:27;;;;;;;3.15;1.20;;;15.90;1.00;;;;;;6248765;23;20020;-85
2023/03/11 14:03:20;;;;;;;4.13;1.20;;;13.70;1.00;;;;;;6249789;23;20020;-84
2023/03/11 14:06:14;;;;;;;5.88;1.50;;;13.00;1.00;;;;;;6250946;23;20039;-86
2023/03/11 14:09:17;;;;;;;4.32;1.23;;;14.10;1.00;;;;;;6249166;23;20031;-86
2023/03/11 14:12:06;;;;;;;4.50;1.40;;;14.10;1.00;;;;;;6255760;23;20058;-85
2023/03/11 14:15:06;;;;;;;4.18;1.52;;;14.50;1.00;;;;;;6269000;22;20016;-81
2023/03/11 14:18:13;;;;;;;2.45;1.10;;;13.80;1.00;;;;;;6270805;23;20016;-84
2023/03/11 14:21:05;;;;;;;4.60;1.55;;;14.60;1.00;;;;;;6260246;23;20028;-85
2023/03/11 14:23:55;;;;;;;1.70;1.20;;;15.50;1.00;;;;;;6258696;23;20092;-85
2023/03/11 14:26:43;;;;;;;2.80;1.40;;;15.60;1.00;;;;;;6264758;23;20024;-84
2023/03/11 14:29:42;;;;;;;2.67;1.02;;;14.80;1.00;;;;;;6264897;22;20012;-83
2023/03/11 14:32:34;;;;;;;2.63;1.17;;;13.60;1.00;;;;;;6261571;22;20024;-85
2023/03/11 14:35:22;;;;;;;3.00;1.40;;;12.30;1.00;;;;;;6258349;23;20024;-85
2023/03/11 14:38:26;;;;;;;2.63;1.30;;;11.10;1.00;;;;;;6238634;23;20035;-86
2023/03/11 14:41:14;;;;;;;3.58;1.30;;;10.60;1.00;;;;;;6255598;23;20469;-86
2023/03/11 14:44:02;;;;;;;2.63;1.20;;;10.60;1.00;;;;;;6252066;23;20032;-85
2023/03/11 14:46:53;;;;;;;3.08;1.35;;;10.40;1.00;;;;;;6251213;23;20032;-86
2023/03/11 14:49:41;;;;;;;2.95;1.27;;;10.60;1.00;;;;;;6220486;23;20024;-86
2023/03/11 14:52:43;;;;;;;3.08;1.27;;;10.20;1.00;;;;;;6218049;23;20028;-86
2023/03/11 14:55:49;;;;;;;4.90;1.50;;;9.80;1.00;;;;;;6220358;23;20043;-85
2023/03/11 14:58:41;;;;;;;5.25;1.30;;;9.40;1.00;;;;;;6220515;23;20044;-84
2023/03/11 15:01:32;;;;;;;4.60;1.55;;;8.90;1.00;;;;;;6235257;23;20028;-84
2023/03/11 15:04:34;;;;;;;2.35;1.50;;;8.50;1.00;;;;;;6228732;23;20032;-86
2023/03/11 15:07:24;;;;;;;7.93;1.80;;;8.60;1.00;;;;;;6226279;23;20036;-84
2023/03/11 15:10:16;;;;;;;4.47;1.30;;;8.50;1.00;;;;;;6204535;23;20024;-85
2023/03/11 15:13:25;;;;;;;4.85;1.40;;;8.60;1.00;;;;;;6220553;23;20028;-86
2023/03/11 15:16:30;;;;;;;3.17;1.40;;;8.50;1.00;;;;;;6219217;23;20024;-86